createdAt,value
2023-01-19T00:00:43.333Z,991.57
2023-01-19T00:01:43.272Z,991.62
2023-01-19T00:02:43.296Z,991.63
2023-01-19T00:03:43.225Z,991.68
2023-01-19T00:04:43.211Z,991.69
2023-01-19T00:05:43.213Z,991.69
2023-01-19T00:06:43.210Z,991.73
2023-01-19T00:07:43.161Z,991.74
2023-01-19T00:08:43.216Z,991.72
2023-01-19T00:09:43.159Z,991.73
2023-01-19T00:10:43.160Z,991.72
2023-01-19T00:11:43.151Z,991.74
2023-01-19T00:12:43.132Z,991.72
2023-01-19T00:13:43.111Z,991.74
2023-01-19T00:14:43.116Z,991.75
2023-01-19T00:15:43.128Z,991.74
2023-01-19T00:16:43.115Z,991.70
2023-01-19T00:17:43.064Z,991.72
2023-01-19T00:18:43.068Z,991.73
2023-01-19T00:19:43.039Z,991.74
2023-01-19T00:20:43.071Z,991.75
2023-01-19T00:21:43.037Z,991.76
2023-01-19T00:22:43.037Z,991.77
2023-01-19T00:23:43.015Z,991.80
2023-01-19T00:24:43.009Z,991.76
2023-01-19T00:25:42.992Z,991.77
2023-01-19T00:26:43.030Z,991.79
2023-01-19T00:27:42.979Z,991.85
2023-01-19T00:28:43.000Z,991.83
2023-01-19T00:29:42.988Z,991.77
2023-01-19T00:30:42.951Z,991.79
2023-01-19T00:31:42.934Z,991.79
2023-01-19T00:32:42.951Z,991.80
2023-01-19T00:33:42.919Z,991.81
2023-01-19T00:34:42.915Z,991.83
2023-01-19T00:35:42.917Z,991.82
2023-01-19T00:36:42.889Z,991.87
2023-01-19T00:37:42.892Z,991.87
2023-01-19T00:38:42.878Z,991.88
2023-01-19T00:39:42.857Z,991.88
2023-01-19T00:40:42.863Z,991.84
2023-01-19T00:41:42.833Z,991.80
2023-01-19T00:42:42.860Z,991.82
2023-01-19T00:43:42.908Z,991.82
2023-01-19T00:44:42.821Z,991.86
2023-01-19T00:45:42.841Z,991.85
2023-01-19T00:46:42.790Z,991.86
2023-01-19T00:47:42.780Z,991.88
2023-01-19T00:48:42.799Z,991.86
2023-01-19T00:49:42.782Z,991.89
2023-01-19T00:50:42.768Z,991.88
2023-01-19T00:51:42.744Z,991.90
2023-01-19T00:52:42.773Z,991.95
2023-01-19T00:53:42.704Z,991.90
2023-01-19T00:54:42.729Z,991.90
2023-01-19T00:55:42.727Z,991.91
2023-01-19T00:56:42.733Z,991.90
2023-01-19T00:57:42.685Z,991.90
2023-01-19T00:58:42.668Z,991.94
2023-01-19T00:59:42.691Z,991.93
2023-01-19T01:00:42.697Z,991.89
2023-01-19T01:01:44.979Z,991.91
2023-01-19T01:02:43.004Z,991.90
2023-01-19T01:03:42.626Z,991.90
2023-01-19T01:04:42.626Z,991.95
2023-01-19T01:05:42.606Z,991.93
2023-01-19T01:06:42.633Z,991.97
2023-01-19T01:07:42.577Z,991.97
2023-01-19T01:08:42.573Z,991.98
2023-01-19T01:09:42.585Z,991.95
2023-01-19T01:10:42.579Z,992.00
2023-01-19T01:11:42.556Z,991.95
2023-01-19T01:12:54.822Z,991.93
2023-01-19T01:13:43.550Z,991.94
2023-01-19T01:14:42.527Z,991.96
2023-01-19T01:15:42.543Z,991.94
2023-01-19T01:16:42.560Z,992.01
2023-01-19T01:17:42.497Z,992.00
2023-01-19T01:18:42.467Z,992.02
2023-01-19T01:19:42.469Z,992.05
2023-01-19T01:20:42.483Z,992.10
2023-01-19T01:21:42.463Z,992.13
2023-01-19T01:22:42.439Z,992.12
2023-01-19T01:23:42.423Z,992.14
2023-01-19T01:24:42.419Z,992.14
2023-01-19T01:25:42.428Z,992.13
2023-01-19T01:26:42.425Z,992.12
2023-01-19T01:27:42.385Z,992.14
2023-01-19T01:28:42.370Z,992.14
2023-01-19T01:29:42.355Z,992.17
2023-01-19T01:30:42.384Z,992.11
2023-01-19T01:31:42.432Z,992.16
2023-01-19T01:32:42.360Z,992.12
2023-01-19T01:33:42.387Z,992.14
2023-01-19T01:34:42.325Z,992.16
2023-01-19T01:35:42.286Z,992.10
2023-01-19T01:36:42.338Z,992.16
2023-01-19T01:37:42.271Z,992.18
2023-01-19T01:38:42.299Z,992.15
2023-01-19T01:39:42.273Z,992.18
2023-01-19T01:40:42.257Z,992.19
2023-01-19T01:41:42.273Z,992.16
2023-01-19T01:42:42.243Z,992.17
2023-01-19T01:43:42.214Z,992.14
2023-01-19T01:44:42.227Z,992.12
2023-01-19T01:45:42.287Z,992.13
2023-01-19T01:46:42.238Z,992.12
2023-01-19T01:47:42.183Z,992.11
2023-01-19T01:48:42.179Z,992.12
2023-01-19T01:49:42.165Z,992.13
2023-01-19T01:50:42.167Z,992.10
2023-01-19T01:51:42.151Z,992.10
2023-01-19T01:52:42.181Z,992.08
2023-01-19T01:53:42.118Z,992.11
2023-01-19T01:54:42.128Z,992.11
2023-01-19T01:55:42.143Z,992.09
2023-01-19T01:56:42.116Z,992.08
2023-01-19T01:57:42.092Z,992.12
2023-01-19T01:58:42.096Z,992.13
2023-01-19T01:59:42.062Z,992.13
2023-01-19T02:00:42.076Z,992.15
2023-01-19T02:01:42.254Z,992.13
2023-01-19T02:02:42.085Z,992.14
2023-01-19T02:03:42.060Z,992.16
2023-01-19T02:04:42.021Z,992.14
2023-01-19T02:05:42.019Z,992.09
2023-01-19T02:06:42.009Z,992.10
2023-01-19T02:07:42.009Z,992.12
2023-01-19T02:08:42.003Z,992.14
2023-01-19T02:09:41.975Z,992.14
2023-01-19T02:10:41.994Z,992.10
2023-01-19T02:11:41.941Z,992.13
2023-01-19T02:12:41.927Z,992.11
2023-01-19T02:13:41.954Z,992.12
2023-01-19T02:14:41.952Z,992.11
2023-01-19T02:15:41.901Z,992.09
2023-01-19T02:16:41.937Z,992.07
2023-01-19T02:17:41.887Z,992.10
2023-01-19T02:18:41.891Z,992.08
2023-01-19T02:19:41.893Z,992.05
2023-01-19T02:20:41.851Z,992.08
2023-01-19T02:21:41.880Z,992.13
2023-01-19T02:22:41.823Z,992.07
2023-01-19T02:23:41.851Z,992.11
2023-01-19T02:24:41.843Z,992.10
2023-01-19T02:25:41.810Z,992.10
2023-01-19T02:26:41.827Z,992.10
2023-01-19T02:27:41.781Z,992.13
2023-01-19T02:28:41.783Z,992.10
2023-01-19T02:29:41.803Z,992.11
2023-01-19T02:30:41.819Z,992.12
2023-01-19T02:31:41.754Z,992.08
2023-01-19T02:32:41.755Z,992.14
2023-01-19T02:33:41.746Z,992.12
2023-01-19T02:34:41.745Z,992.10
2023-01-19T02:35:41.713Z,992.12
2023-01-19T02:36:41.719Z,992.14
2023-01-19T02:37:41.682Z,992.12
2023-01-19T02:38:41.674Z,992.12
2023-01-19T02:39:41.741Z,992.17
2023-01-19T02:40:41.644Z,992.17
2023-01-19T02:41:41.657Z,992.16
2023-01-19T02:42:41.640Z,992.17
2023-01-19T02:43:41.612Z,992.15
2023-01-19T02:44:41.657Z,992.15
2023-01-19T02:45:41.647Z,992.14
2023-01-19T02:46:41.655Z,992.13
2023-01-19T02:47:41.587Z,992.12
2023-01-19T02:48:41.591Z,992.08
2023-01-19T02:49:41.577Z,992.08
2023-01-19T02:50:41.612Z,992.11
2023-01-19T02:51:41.594Z,992.13
2023-01-19T02:52:41.544Z,992.15
2023-01-19T02:53:41.525Z,992.14
2023-01-19T02:54:41.548Z,992.11
2023-01-19T02:55:41.551Z,992.13
2023-01-19T02:56:41.537Z,992.13
2023-01-19T02:57:41.483Z,992.12
2023-01-19T02:58:41.491Z,992.11
2023-01-19T02:59:41.482Z,992.14
2023-01-19T03:00:41.474Z,992.12
2023-01-19T03:01:41.578Z,992.20
2023-01-19T03:02:41.471Z,992.14
2023-01-19T03:03:41.437Z,992.14
2023-01-19T03:04:41.440Z,992.17
2023-01-19T03:05:41.455Z,992.15
2023-01-19T03:06:41.409Z,992.16
2023-01-19T03:07:41.395Z,992.17
2023-01-19T03:08:41.404Z,992.18
2023-01-19T03:09:41.383Z,992.16
2023-01-19T03:10:41.378Z,992.13
2023-01-19T03:11:41.380Z,992.17
2023-01-19T03:12:41.382Z,992.14
2023-01-19T03:13:41.359Z,992.16
2023-01-19T03:14:41.314Z,992.19
2023-01-19T03:15:41.350Z,992.19
2023-01-19T03:16:41.381Z,992.22
2023-01-19T03:17:41.283Z,992.19
2023-01-19T03:18:41.300Z,992.27
2023-01-19T03:19:41.282Z,992.18
2023-01-19T03:20:41.276Z,992.16
2023-01-19T03:21:41.292Z,992.20
2023-01-19T03:22:41.257Z,992.25
2023-01-19T03:23:41.224Z,992.18
2023-01-19T03:24:41.240Z,992.19
2023-01-19T03:25:41.216Z,992.19
2023-01-19T03:26:41.238Z,992.19
2023-01-19T03:27:41.200Z,992.23
2023-01-19T03:28:41.238Z,992.26
2023-01-19T03:29:41.166Z,992.24
2023-01-19T03:30:41.216Z,992.22
2023-01-19T03:31:41.177Z,992.25
2023-01-19T03:32:41.156Z,992.25
2023-01-19T03:33:41.128Z,992.25
2023-01-19T03:34:41.139Z,992.28
2023-01-19T03:35:41.147Z,992.25
2023-01-19T03:36:41.159Z,992.20
2023-01-19T03:37:41.104Z,992.26
2023-01-19T03:38:41.091Z,992.28
2023-01-19T03:39:41.083Z,992.24
2023-01-19T03:40:41.103Z,992.20
2023-01-19T03:41:41.084Z,992.21
2023-01-19T03:42:41.074Z,992.19
2023-01-19T03:43:41.039Z,992.19
2023-01-19T03:44:41.076Z,992.14
2023-01-19T03:45:41.033Z,992.17
2023-01-19T03:46:41.078Z,992.20
2023-01-19T03:47:41.058Z,992.21
2023-01-19T03:48:40.993Z,992.25
2023-01-19T03:49:40.993Z,992.23
2023-01-19T03:50:41.984Z,992.25
2023-01-19T03:51:41.028Z,992.26
2023-01-19T03:52:40.965Z,992.27
2023-01-19T03:53:40.991Z,992.28
2023-01-19T03:54:40.946Z,992.26
2023-01-19T03:55:40.946Z,992.21
2023-01-19T03:56:40.919Z,992.23
2023-01-19T03:57:40.950Z,992.29
2023-01-19T03:58:40.908Z,992.27
2023-01-19T03:59:40.898Z,992.23
2023-01-19T04:00:40.861Z,992.24
2023-01-19T04:01:41.020Z,992.22
2023-01-19T04:02:40.882Z,992.28
2023-01-19T04:03:40.845Z,992.25
2023-01-19T04:04:40.868Z,992.23
2023-01-19T04:05:40.841Z,992.22
2023-01-19T04:06:40.822Z,992.22
2023-01-19T04:07:40.831Z,992.24
2023-01-19T04:08:40.806Z,992.25
2023-01-19T04:09:40.806Z,992.30
2023-01-19T04:10:40.775Z,992.21
2023-01-19T04:11:40.787Z,992.23
2023-01-19T04:12:40.753Z,992.26
2023-01-19T04:13:40.750Z,992.23
2023-01-19T04:14:40.766Z,992.24
2023-01-19T04:15:40.805Z,992.27
2023-01-19T04:16:40.708Z,992.29
2023-01-19T04:17:40.711Z,992.27
2023-01-19T04:18:40.701Z,992.27
2023-01-19T04:19:40.711Z,992.23
2023-01-19T04:20:40.676Z,992.21
2023-01-19T04:21:40.666Z,992.20
2023-01-19T04:22:40.664Z,992.22
2023-01-19T04:23:40.641Z,992.23
2023-01-19T04:24:40.646Z,992.23
2023-01-19T04:25:40.647Z,992.25
2023-01-19T04:26:40.608Z,992.24
2023-01-19T04:27:40.619Z,992.24
2023-01-19T04:28:40.585Z,992.19
2023-01-19T04:29:40.589Z,992.26
2023-01-19T04:30:40.585Z,992.23
2023-01-19T04:31:40.585Z,992.23
2023-01-19T04:32:40.552Z,992.24
2023-01-19T04:33:40.549Z,992.23
2023-01-19T04:34:40.521Z,992.23
2023-01-19T04:35:40.535Z,992.26
2023-01-19T04:36:40.581Z,992.26
2023-01-19T04:37:40.503Z,992.23
2023-01-19T04:38:40.510Z,992.29
2023-01-19T04:39:40.508Z,992.29
2023-01-19T04:40:40.476Z,992.33
2023-01-19T04:41:40.495Z,992.31
2023-01-19T04:42:40.492Z,992.32
2023-01-19T04:43:40.444Z,992.37
2023-01-19T04:44:40.432Z,992.34
2023-01-19T04:45:40.434Z,992.36
2023-01-19T04:46:40.474Z,992.34
2023-01-19T04:47:40.431Z,992.42
2023-01-19T04:48:41.359Z,992.38
2023-01-19T04:49:40.410Z,992.34
2023-01-19T04:50:40.391Z,992.32
2023-01-19T04:51:40.384Z,992.37
2023-01-19T04:52:40.385Z,992.32
2023-01-19T04:53:40.349Z,992.39
2023-01-19T04:54:40.343Z,992.36
2023-01-19T04:55:40.353Z,992.42
2023-01-19T04:56:40.316Z,992.41
2023-01-19T04:57:40.340Z,992.40
2023-01-19T04:58:40.301Z,992.41
2023-01-19T04:59:40.337Z,992.41
2023-01-19T05:00:40.292Z,992.39
2023-01-19T05:01:40.327Z,992.40
2023-01-19T05:02:40.275Z,992.40
2023-01-19T05:03:40.288Z,992.37
2023-01-19T05:04:40.221Z,992.30
2023-01-19T05:05:40.244Z,992.29
2023-01-19T05:06:40.204Z,992.25
2023-01-19T05:07:40.204Z,992.32
2023-01-19T05:08:40.230Z,992.33
2023-01-19T05:09:40.209Z,992.31
2023-01-19T05:10:40.194Z,992.27
2023-01-19T05:11:40.180Z,992.25
2023-01-19T05:12:40.158Z,992.28
2023-01-19T05:13:40.176Z,992.28
2023-01-19T05:14:40.168Z,992.24
2023-01-19T05:15:40.141Z,992.31
2023-01-19T05:16:40.113Z,992.27
2023-01-19T05:17:40.141Z,992.28
2023-01-19T05:18:40.105Z,992.28
2023-01-19T05:19:40.124Z,992.26
2023-01-19T05:20:40.070Z,992.28
2023-01-19T05:21:40.067Z,992.25
2023-01-19T05:22:40.079Z,992.29
2023-01-19T05:23:40.053Z,992.32
2023-01-19T05:24:40.058Z,992.37
2023-01-19T05:25:40.028Z,992.40
2023-01-19T05:26:40.013Z,992.42
2023-01-19T05:27:40.015Z,992.37
2023-01-19T05:28:40.012Z,992.42
2023-01-19T05:29:40.031Z,992.39
2023-01-19T05:30:40.080Z,992.43
2023-01-19T05:31:39.978Z,992.47
2023-01-19T05:32:39.947Z,992.51
2023-01-19T05:33:39.947Z,992.54
2023-01-19T05:34:39.963Z,992.57
2023-01-19T05:35:39.938Z,992.56
2023-01-19T05:36:39.926Z,992.56
2023-01-19T05:37:39.933Z,992.62
2023-01-19T05:38:39.997Z,992.60
2023-01-19T05:39:39.901Z,992.62
2023-01-19T05:40:39.891Z,992.60
2023-01-19T05:41:39.887Z,992.63
2023-01-19T05:42:39.866Z,992.61
2023-01-19T05:43:39.882Z,992.59
2023-01-19T05:44:39.836Z,992.60
2023-01-19T05:45:39.881Z,992.59
2023-01-19T05:46:39.839Z,992.54
2023-01-19T05:47:39.824Z,992.56
2023-01-19T05:48:39.814Z,992.50
2023-01-19T05:49:39.793Z,992.58
2023-01-19T05:50:39.804Z,992.58
2023-01-19T05:51:39.767Z,992.59
2023-01-19T05:52:39.746Z,992.59
2023-01-19T05:53:39.780Z,992.55
2023-01-19T05:54:39.992Z,992.59
2023-01-19T05:55:39.761Z,992.57
2023-01-19T05:56:39.733Z,992.59
2023-01-19T05:57:39.721Z,992.60
2023-01-19T05:58:39.696Z,992.60
2023-01-19T05:59:39.704Z,992.65
2023-01-19T06:00:39.681Z,992.63
2023-01-19T06:01:40.329Z,992.60
2023-01-19T06:02:39.653Z,992.59
2023-01-19T06:03:39.726Z,992.62
2023-01-19T06:04:39.706Z,992.60
2023-01-19T06:05:39.685Z,992.62
2023-01-19T06:06:39.652Z,992.60
2023-01-19T06:07:39.643Z,992.59
2023-01-19T06:08:39.596Z,992.59
2023-01-19T06:09:39.629Z,992.59
2023-01-19T06:10:39.571Z,992.60
2023-01-19T06:11:39.597Z,992.62
2023-01-19T06:12:39.562Z,992.63
2023-01-19T06:13:41.277Z,992.61
2023-01-19T06:14:39.534Z,992.63
2023-01-19T06:15:39.543Z,992.64
2023-01-19T06:16:39.555Z,992.65
2023-01-19T06:17:39.534Z,992.65
2023-01-19T06:18:39.502Z,992.64
2023-01-19T06:19:39.496Z,992.65
2023-01-19T06:20:39.467Z,992.67
2023-01-19T06:21:39.492Z,992.65
2023-01-19T06:22:39.443Z,992.67
2023-01-19T06:23:39.498Z,992.64
2023-01-19T06:24:39.444Z,992.70
2023-01-19T06:25:39.423Z,992.68
2023-01-19T06:26:39.408Z,992.71
2023-01-19T06:27:39.510Z,992.71
2023-01-19T06:28:39.434Z,992.72
2023-01-19T06:29:39.405Z,992.70
2023-01-19T06:30:39.425Z,992.73
2023-01-19T06:31:39.465Z,992.72
2023-01-19T06:32:39.362Z,992.74
2023-01-19T06:33:39.394Z,992.72
2023-01-19T06:34:39.330Z,992.74
2023-01-19T06:35:39.333Z,992.70
2023-01-19T06:36:39.333Z,992.75
2023-01-19T06:37:39.320Z,992.68
2023-01-19T06:38:39.373Z,992.75
2023-01-19T06:39:39.321Z,992.74
2023-01-19T06:40:39.260Z,992.77
2023-01-19T06:41:39.278Z,992.82
2023-01-19T06:42:39.284Z,992.75
2023-01-19T06:43:39.289Z,992.78
2023-01-19T06:44:39.242Z,992.81
2023-01-19T06:45:39.287Z,992.80
2023-01-19T06:46:39.203Z,992.78
2023-01-19T06:47:39.217Z,992.79
2023-01-19T06:48:39.238Z,992.82
2023-01-19T06:49:39.216Z,992.82
2023-01-19T06:50:39.173Z,992.83
2023-01-19T06:51:39.190Z,992.89
2023-01-19T06:52:39.149Z,992.87
2023-01-19T06:53:39.177Z,992.85
2023-01-19T06:54:39.136Z,992.89
2023-01-19T06:55:39.182Z,992.91
2023-01-19T06:56:39.119Z,992.90
2023-01-19T06:57:39.125Z,992.89
2023-01-19T06:58:39.138Z,992.89
2023-01-19T06:59:39.095Z,992.86
2023-01-19T07:00:39.087Z,992.88
2023-01-19T07:01:39.173Z,992.89
2023-01-19T07:02:39.161Z,992.91
2023-01-19T07:03:39.075Z,992.88
2023-01-19T07:04:39.034Z,992.88
2023-01-19T07:05:39.068Z,992.90
2023-01-19T07:06:38.992Z,992.93
2023-01-19T07:07:39.055Z,992.94
2023-01-19T07:08:39.009Z,992.94
2023-01-19T07:09:39.048Z,992.93
2023-01-19T07:11:26.101Z,992.97
2023-01-19T07:11:40.008Z,992.97
2023-01-19T07:12:38.956Z,992.98
2023-01-19T07:13:39.002Z,992.98
2023-01-19T07:14:38.943Z,993.04
2023-01-19T07:15:38.992Z,993.01
2023-01-19T07:16:38.954Z,993.00
2023-01-19T07:17:38.932Z,993.01
2023-01-19T07:18:38.897Z,993.00
2023-01-19T07:19:38.945Z,993.02
2023-01-19T07:20:38.879Z,993.05
2023-01-19T07:21:38.869Z,993.05
2023-01-19T07:22:38.845Z,993.04
2023-01-19T07:23:38.884Z,993.08
2023-01-19T07:24:38.857Z,993.08
2023-01-19T07:25:38.832Z,993.07
2023-01-19T07:26:38.792Z,993.07
2023-01-19T07:27:38.809Z,993.10
2023-01-19T07:28:38.793Z,993.11
2023-01-19T07:29:38.885Z,993.12
2023-01-19T07:30:38.837Z,993.10
2023-01-19T07:31:38.824Z,993.11
2023-01-19T07:32:38.761Z,993.13
2023-01-19T07:33:38.771Z,993.15
2023-01-19T07:34:38.788Z,993.19
2023-01-19T07:35:38.794Z,993.20
2023-01-19T07:36:38.744Z,993.19
2023-01-19T07:37:38.723Z,993.20
2023-01-19T07:38:38.701Z,993.21
2023-01-19T07:39:42.299Z,993.15
2023-01-19T07:40:38.685Z,993.17
2023-01-19T07:41:38.701Z,993.18
2023-01-19T07:42:38.693Z,993.19
2023-01-19T07:43:38.651Z,993.20
2023-01-19T07:44:38.636Z,993.18
2023-01-19T07:45:38.659Z,993.22
2023-01-19T07:46:38.611Z,993.19
2023-01-19T07:47:38.633Z,993.20
2023-01-19T07:48:38.820Z,993.20
2023-01-19T07:49:38.608Z,993.16
2023-01-19T07:50:38.597Z,993.21
2023-01-19T07:51:38.575Z,993.21
2023-01-19T07:52:38.561Z,993.16
2023-01-19T07:53:38.572Z,993.25
2023-01-19T07:54:38.600Z,993.20
2023-01-19T07:55:38.547Z,993.19
2023-01-19T07:56:38.537Z,993.21
2023-01-19T07:57:38.546Z,993.19
2023-01-19T07:58:38.539Z,993.26
2023-01-19T07:59:38.502Z,993.21
2023-01-19T08:00:38.529Z,993.20
2023-01-19T08:01:38.585Z,993.20
2023-01-19T08:02:38.453Z,993.18
2023-01-19T08:03:38.469Z,993.25
2023-01-19T08:04:38.471Z,993.22
2023-01-19T08:05:38.908Z,993.20
2023-01-19T08:06:38.464Z,993.25
2023-01-19T08:07:38.399Z,993.31
2023-01-19T08:08:38.403Z,993.24
2023-01-19T08:09:38.374Z,993.23
2023-01-19T08:10:38.627Z,993.25
2023-01-19T08:11:38.385Z,993.26
2023-01-19T08:12:38.392Z,993.25
2023-01-19T08:13:38.353Z,993.22
2023-01-19T08:14:38.487Z,993.24
2023-01-19T08:15:38.336Z,993.26
2023-01-19T08:16:38.343Z,993.21
2023-01-19T08:17:38.316Z,993.25
2023-01-19T08:18:38.351Z,993.26
2023-01-19T08:19:41.311Z,993.27
2023-01-19T08:20:38.299Z,993.30
2023-01-19T08:21:38.269Z,993.29
2023-01-19T08:22:38.297Z,993.29
2023-01-19T08:23:38.294Z,993.30
2023-01-19T08:24:38.282Z,993.26
2023-01-19T08:25:38.246Z,993.27
2023-01-19T08:26:38.216Z,993.30
2023-01-19T08:27:38.225Z,993.27
2023-01-19T08:28:38.209Z,993.24
2023-01-19T08:29:38.205Z,993.27
2023-01-19T08:30:38.315Z,993.23
2023-01-19T08:31:38.196Z,993.25
2023-01-19T08:32:38.188Z,993.24
2023-01-19T08:33:38.434Z,993.22
2023-01-19T08:34:38.161Z,993.25
2023-01-19T08:35:38.130Z,993.20
2023-01-19T08:36:38.131Z,993.23
2023-01-19T08:37:38.347Z,993.26
2023-01-19T08:38:38.128Z,993.23
2023-01-19T08:39:38.092Z,993.27
2023-01-19T08:40:38.094Z,993.26
2023-01-19T08:41:38.083Z,993.28
2023-01-19T08:42:38.067Z,993.28
2023-01-19T08:43:38.059Z,993.23
2023-01-19T08:44:46.730Z,993.28
2023-01-19T08:45:39.023Z,993.29
2023-01-19T08:46:38.073Z,993.28
2023-01-19T08:47:38.097Z,993.25
2023-01-19T08:48:39.836Z,993.27
2023-01-19T08:49:37.985Z,993.27
2023-01-19T08:50:38.048Z,993.23
2023-01-19T08:51:38.081Z,993.26
2023-01-19T08:52:37.960Z,993.28
2023-01-19T08:53:37.961Z,993.28
2023-01-19T08:54:37.980Z,993.26
2023-01-19T08:55:37.961Z,993.22
2023-01-19T08:56:37.920Z,993.24
2023-01-19T08:57:37.904Z,993.25
2023-01-19T08:58:37.917Z,993.27
2023-01-19T08:59:38.080Z,993.25
2023-01-19T09:00:37.952Z,993.22
2023-01-19T09:01:38.004Z,993.21
2023-01-19T09:02:37.952Z,993.24
2023-01-19T09:03:37.847Z,993.23
2023-01-19T09:04:37.841Z,993.25
2023-01-19T09:05:37.893Z,993.22
2023-01-19T09:06:37.835Z,993.22
2023-01-19T09:07:37.797Z,993.25
2023-01-19T09:08:37.802Z,993.23
2023-01-19T09:09:37.781Z,993.23
2023-01-19T09:10:37.835Z,993.18
2023-01-19T09:11:37.777Z,993.16
2023-01-19T09:12:37.774Z,993.16
2023-01-19T09:13:37.736Z,993.17
2023-01-19T09:14:37.755Z,993.20
2023-01-19T09:15:37.874Z,993.21
2023-01-19T09:16:37.729Z,993.20
2023-01-19T09:17:37.698Z,993.25
2023-01-19T09:18:37.703Z,993.19
2023-01-19T09:19:37.681Z,993.20
2023-01-19T09:20:37.698Z,993.22
2023-01-19T09:21:37.681Z,993.22
2023-01-19T09:22:37.692Z,993.21
2023-01-19T09:23:37.644Z,993.20
2023-01-19T09:24:37.660Z,993.23
2023-01-19T09:25:37.632Z,993.18
2023-01-19T09:26:37.651Z,993.22
2023-01-19T09:27:37.794Z,993.19
2023-01-19T09:28:37.614Z,993.20
2023-01-19T09:29:37.615Z,993.22
2023-01-19T09:30:37.643Z,993.23
2023-01-19T09:31:37.593Z,993.24
2023-01-19T09:32:37.552Z,993.23
2023-01-19T09:33:37.546Z,993.23
2023-01-19T09:34:37.563Z,993.26
2023-01-19T09:35:37.550Z,993.27
2023-01-19T09:36:37.553Z,993.25
2023-01-19T09:37:37.476Z,993.26
2023-01-19T09:38:37.500Z,993.29
2023-01-19T09:39:37.520Z,993.29
2023-01-19T09:40:37.493Z,993.30
2023-01-19T09:41:37.492Z,993.30
2023-01-19T09:42:37.517Z,993.26
2023-01-19T09:43:37.490Z,993.28
2023-01-19T09:44:37.427Z,993.27
2023-01-19T09:45:37.441Z,993.27
2023-01-19T09:46:37.469Z,993.26
2023-01-19T09:47:37.423Z,993.26
2023-01-19T09:48:37.412Z,993.25
2023-01-19T09:49:37.587Z,993.29
2023-01-19T09:50:37.399Z,993.28
2023-01-19T09:51:37.723Z,993.27
2023-01-19T09:52:37.353Z,993.29
2023-01-19T09:53:37.360Z,993.30
2023-01-19T09:54:37.342Z,993.31
2023-01-19T09:55:37.348Z,993.31
2023-01-19T09:56:37.349Z,993.33
2023-01-19T09:57:37.369Z,993.37
2023-01-19T09:58:37.293Z,993.38
2023-01-19T09:59:37.259Z,993.36
2023-01-19T10:00:37.370Z,993.35
2023-01-19T10:01:37.416Z,993.33
2023-01-19T10:02:37.318Z,993.37
2023-01-19T10:03:37.257Z,993.30
2023-01-19T10:04:37.264Z,993.29
2023-01-19T10:05:37.463Z,993.32
2023-01-19T10:06:37.228Z,993.34
2023-01-19T10:07:37.237Z,993.36
2023-01-19T10:08:37.236Z,993.37
2023-01-19T10:09:37.181Z,993.38
2023-01-19T10:10:37.193Z,993.38
2023-01-19T10:11:51.273Z,993.37
2023-01-19T10:12:38.247Z,993.36
2023-01-19T10:13:37.136Z,993.39
2023-01-19T10:14:37.140Z,993.37
2023-01-19T10:15:37.149Z,993.38
2023-01-19T10:16:37.163Z,993.39
2023-01-19T10:17:37.127Z,993.35
2023-01-19T10:18:37.137Z,993.34
2023-01-19T10:19:37.094Z,993.35
2023-01-19T10:20:37.118Z,993.36
2023-01-19T10:21:37.077Z,993.42
2023-01-19T10:22:37.080Z,993.43
2023-01-19T10:23:37.088Z,993.40
2023-01-19T10:24:37.099Z,993.41
2023-01-19T10:25:37.063Z,993.39
2023-01-19T10:26:37.100Z,993.38
2023-01-19T10:27:37.057Z,993.40
2023-01-19T10:28:37.037Z,993.41
2023-01-19T10:29:37.018Z,993.39
2023-01-19T10:30:37.053Z,993.43
2023-01-19T10:31:37.018Z,993.40
2023-01-19T10:32:36.970Z,993.39
2023-01-19T10:33:36.988Z,993.42
2023-01-19T10:34:36.968Z,993.41
2023-01-19T10:35:36.940Z,993.41
2023-01-19T10:36:36.978Z,993.38
2023-01-19T10:37:36.901Z,993.40
2023-01-19T10:38:36.969Z,993.33
2023-01-19T10:39:38.691Z,993.39
2023-01-19T10:40:36.921Z,993.33
2023-01-19T10:41:36.891Z,993.35
2023-01-19T10:42:36.882Z,993.30
2023-01-19T10:43:36.836Z,993.32
2023-01-19T10:44:36.854Z,993.29
2023-01-19T10:45:37.067Z,993.33
2023-01-19T10:46:36.867Z,993.32
2023-01-19T10:47:36.840Z,993.32
2023-01-19T10:48:36.850Z,993.37
2023-01-19T10:49:36.806Z,993.31
2023-01-19T10:50:36.795Z,993.38
2023-01-19T10:51:36.778Z,993.31
2023-01-19T10:52:36.773Z,993.33
2023-01-19T10:53:36.756Z,993.32
2023-01-19T10:54:36.789Z,993.31
2023-01-19T10:55:36.761Z,993.35
2023-01-19T10:56:36.751Z,993.33
2023-01-19T10:57:36.733Z,993.26
2023-01-19T10:58:36.720Z,993.26
2023-01-19T10:59:36.811Z,993.22
2023-01-19T11:00:36.717Z,993.25
2023-01-19T11:01:36.878Z,993.28
2023-01-19T11:02:36.810Z,993.22
2023-01-19T11:03:36.721Z,993.18
2023-01-19T11:04:36.664Z,993.20
2023-01-19T11:05:36.676Z,993.15
2023-01-19T11:06:36.654Z,993.17
2023-01-19T11:07:36.576Z,993.14
2023-01-19T11:08:36.588Z,993.21
2023-01-19T11:09:36.588Z,993.18
2023-01-19T11:10:36.645Z,993.18
2023-01-19T11:11:36.558Z,993.15
2023-01-19T11:12:36.567Z,993.25
2023-01-19T11:13:36.526Z,993.12
2023-01-19T11:14:36.520Z,993.15
2023-01-19T11:15:36.544Z,993.21
2023-01-19T11:16:36.592Z,993.27
2023-01-19T11:17:36.476Z,993.25
2023-01-19T11:18:36.482Z,993.31
2023-01-19T11:19:36.458Z,993.29
2023-01-19T11:20:36.481Z,993.27
2023-01-19T11:21:36.448Z,993.35
2023-01-19T11:22:36.501Z,993.37
2023-01-19T11:23:36.439Z,993.37
2023-01-19T11:24:36.468Z,993.37
2023-01-19T11:25:36.397Z,993.37
2023-01-19T11:26:36.445Z,993.34
2023-01-19T11:27:36.425Z,993.44
2023-01-19T11:28:36.404Z,993.46
2023-01-19T11:29:36.385Z,993.42
2023-01-19T11:30:36.390Z,993.39
2023-01-19T11:31:36.448Z,993.43
2023-01-19T11:32:36.426Z,993.43
2023-01-19T11:33:36.360Z,993.47
2023-01-19T11:34:36.338Z,993.43
2023-01-19T11:35:36.315Z,993.44
2023-01-19T11:36:36.350Z,993.46
2023-01-19T11:37:36.292Z,993.40
2023-01-19T11:38:36.300Z,993.44
2023-01-19T11:39:36.264Z,993.49
2023-01-19T11:40:36.279Z,993.45
2023-01-19T11:41:36.281Z,993.47
2023-01-19T11:42:36.307Z,993.42
2023-01-19T11:43:48.211Z,993.47
2023-01-19T11:44:37.258Z,993.49
2023-01-19T11:45:36.224Z,993.45
2023-01-19T11:46:36.234Z,993.44
2023-01-19T11:47:36.220Z,993.51
2023-01-19T11:48:36.178Z,993.43
2023-01-19T11:49:36.171Z,993.50
2023-01-19T11:50:36.176Z,993.48
2023-01-19T11:51:36.258Z,993.52
2023-01-19T11:52:36.162Z,993.53
2023-01-19T11:53:36.138Z,993.49
2023-01-19T11:54:36.158Z,993.45
2023-01-19T11:55:36.105Z,993.49
2023-01-19T11:56:36.109Z,993.43
2023-01-19T11:57:36.116Z,993.48
2023-01-19T11:58:36.091Z,993.49
2023-01-19T11:59:36.105Z,993.45
2023-01-19T12:00:36.129Z,993.49
2023-01-19T12:01:36.028Z,993.50
2023-01-19T12:02:36.079Z,993.48
2023-01-19T12:03:36.102Z,993.49
2023-01-19T12:04:36.041Z,993.49
2023-01-19T12:05:35.998Z,993.54
2023-01-19T12:06:36.021Z,993.50
2023-01-19T12:07:36.004Z,993.54
2023-01-19T12:08:35.996Z,993.54
2023-01-19T12:09:35.987Z,993.58
2023-01-19T12:10:35.966Z,993.57
2023-01-19T12:11:35.958Z,993.53
2023-01-19T12:12:35.996Z,993.56
2023-01-19T12:13:36.013Z,993.55
2023-01-19T12:14:35.927Z,993.58
2023-01-19T12:15:35.886Z,993.55
2023-01-19T12:16:35.921Z,993.58
2023-01-19T12:17:35.919Z,993.54
2023-01-19T12:18:35.890Z,993.55
2023-01-19T12:19:35.870Z,993.57
2023-01-19T12:20:35.838Z,993.59
2023-01-19T12:21:35.870Z,993.55
2023-01-19T12:22:35.865Z,993.60
2023-01-19T12:23:35.829Z,993.62
2023-01-19T12:24:35.832Z,993.60
2023-01-19T12:25:35.807Z,993.63
2023-01-19T12:26:35.794Z,993.57
2023-01-19T12:27:35.809Z,993.59
2023-01-19T12:28:35.815Z,993.59